sensor_id;sensor_type;location;lat;lon;timestamp;P1;durP1;ratioP1;P2;durP2;ratioP2
6053;SDS011;3055;50.886;14.814;2023-04-09T00:02:23;34.30;;;26.13;;
6053;SDS011;3055;50.886;14.814;2023-04-09T00:04:51;37.80;;;27.40;;
6053;SDS011;3055;50.886;14.814;2023-04-09T00:07:20;35.90;;;26.60;;
6053;SDS011;3055;50.886;14.814;2023-04-09T00:09:47;36.93;;;28.13;;
6053;SDS011;3055;50.886;14.814;2023-04-09T00:12:14;35.33;;;27.20;;
6053;SDS011;3055;50.886;14.814;2023-04-09T00:14:41;36.60;;;28.07;;
6053;SDS011;3055;50.886;14.814;2023-04-09T00:17:08;40.10;;;27.33;;
6053;SDS011;3055;50.886;14.814;2023-04-09T00:19:35;39.27;;;27.33;;
6053;SDS011;3055;50.886;14.814;2023-04-09T00:22:02;35.40;;;27.07;;
6053;SDS011;3055;50.886;14.814;2023-04-09T00:24:30;37.67;;;28.77;;
6053;SDS011;3055;50.886;14.814;2023-04-09T00:26:58;38.00;;;29.47;;
6053;SDS011;3055;50.886;14.814;2023-04-09T00:29:25;38.33;;;27.57;;
6053;SDS011;3055;50.886;14.814;2023-04-09T00:31:52;38.70;;;28.30;;
6053;SDS011;3055;50.886;14.814;2023-04-09T00:34:19;38.73;;;28.17;;
6053;SDS011;3055;50.886;14.814;2023-04-09T00:36:46;38.77;;;28.57;;
6053;SDS011;3055;50.886;14.814;2023-04-09T00:39:13;38.73;;;28.43;;
6053;SDS011;3055;50.886;14.814;2023-04-09T00:41:41;39.07;;;29.13;;
6053;SDS011;3055;50.886;14.814;2023-04-09T00:44:08;38.53;;;27.77;;
6053;SDS011;3055;50.886;14.814;2023-04-09T00:46:35;39.13;;;29.43;;
6053;SDS011;3055;50.886;14.814;2023-04-09T00:49:02;37.37;;;29.23;;
6053;SDS011;3055;50.886;14.814;2023-04-09T00:51:30;38.40;;;28.93;;
6053;SDS011;3055;50.886;14.814;2023-04-09T00:53:58;40.40;;;28.07;;
6053;SDS011;3055;50.886;14.814;2023-04-09T00:56:25;40.07;;;28.53;;
6053;SDS011;3055;50.886;14.814;2023-04-09T00:58:55;37.50;;;28.20;;
6053;SDS011;3055;50.886;14.814;2023-04-09T01:01:22;39.50;;;29.30;;
6053;SDS011;3055;50.886;14.814;2023-04-09T01:03:49;41.20;;;28.37;;
6053;SDS011;3055;50.886;14.814;2023-04-09T01:06:18;36.93;;;27.70;;
6053;SDS011;3055;50.886;14.814;2023-04-09T01:08:54;37.37;;;29.43;;
6053;SDS011;3055;50.886;14.814;2023-04-09T01:11:29;41.53;;;29.23;;
6053;SDS011;3055;50.886;14.814;2023-04-09T01:14:05;40.13;;;30.80;;
6053;SDS011;3055;50.886;14.814;2023-04-09T01:16:45;43.40;;;30.93;;
6053;SDS011;3055;50.886;14.814;2023-04-09T01:19:18;36.13;;;28.37;;
6053;SDS011;3055;50.886;14.814;2023-04-09T01:22:01;37.60;;;28.80;;
6053;SDS011;3055;50.886;14.814;2023-04-09T01:24:34;35.63;;;26.77;;
6053;SDS011;3055;50.886;14.814;2023-04-09T01:27:10;37.87;;;27.60;;
6053;SDS011;3055;50.886;14.814;2023-04-09T01:29:40;40.43;;;28.40;;
6053;SDS011;3055;50.886;14.814;2023-04-09T01:32:12;41.03;;;28.63;;
6053;SDS011;3055;50.886;14.814;2023-04-09T01:34:42;37.00;;;27.97;;
6053;SDS011;3055;50.886;14.814;2023-04-09T01:37:12;34.03;;;26.30;;
6053;SDS011;3055;50.886;14.814;2023-04-09T01:39:49;35.80;;;25.97;;
6053;SDS011;3055;50.886;14.814;2023-04-09T01:42:16;36.57;;;26.97;;
6053;SDS011;3055;50.886;14.814;2023-04-09T01:44:45;38.23;;;26.83;;
6053;SDS011;3055;50.886;14.814;2023-04-09T01:47:13;33.63;;;26.07;;
6053;SDS011;3055;50.886;14.814;2023-04-09T01:49:40;32.37;;;24.37;;
6053;SDS011;3055;50.886;14.814;2023-04-09T01:52:08;34.87;;;26.40;;
6053;SDS011;3055;50.886;14.814;2023-04-09T01:54:36;34.57;;;26.53;;
6053;SDS011;3055;50.886;14.814;2023-04-09T01:57:03;36.03;;;26.93;;
6053;SDS011;3055;50.886;14.814;2023-04-09T01:59:30;39.73;;;29.50;;
6053;SDS011;3055;50.886;14.814;2023-04-09T02:02:00;39.87;;;28.70;;
6053;SDS011;3055;50.886;14.814;2023-04-09T02:04:38;37.87;;;28.73;;
6053;SDS011;3055;50.886;14.814;2023-04-09T02:07:08;41.57;;;29.80;;
6053;SDS011;3055;50.886;14.814;2023-04-09T02:09:39;37.37;;;28.43;;
6053;SDS011;3055;50.886;14.814;2023-04-09T02:12:09;38.03;;;28.53;;
6053;SDS011;3055;50.886;14.814;2023-04-09T02:14:39;39.77;;;29.07;;
6053;SDS011;3055;50.886;14.814;2023-04-09T02:17:11;40.97;;;30.17;;
6053;SDS011;3055;50.886;14.814;2023-04-09T02:19:39;41.57;;;29.90;;
6053;SDS011;3055;50.886;14.814;2023-04-09T02:22:07;39.67;;;30.00;;
6053;SDS011;3055;50.886;14.814;2023-04-09T02:24:34;40.37;;;29.50;;
6053;SDS011;3055;50.886;14.814;2023-04-09T02:27:02;38.33;;;29.03;;
6053;SDS011;3055;50.886;14.814;2023-04-09T02:29:30;42.27;;;29.67;;
6053;SDS011;3055;50.886;14.814;2023-04-09T02:31:57;39.03;;;29.67;;
6053;SDS011;3055;50.886;14.814;2023-04-09T02:34:26;39.37;;;29.73;;
6053;SDS011;3055;50.886;14.814;2023-04-09T02:36:54;41.80;;;30.07;;
6053;SDS011;3055;50.886;14.814;2023-04-09T02:39:21;42.03;;;30.60;;
6053;SDS011;3055;50.886;14.814;2023-04-09T02:41:48;40.67;;;30.17;;
6053;SDS011;3055;50.886;14.814;2023-04-09T02:44:15;40.03;;;30.30;;
6053;SDS011;3055;50.886;14.814;2023-04-09T02:46:43;37.63;;;28.97;;
6053;SDS011;3055;50.886;14.814;2023-04-09T02:49:11;43.10;;;31.43;;
6053;SDS011;3055;50.886;14.814;2023-04-09T02:51:39;41.40;;;28.97;;
6053;SDS011;3055;50.886;14.814;2023-04-09T02:54:06;38.00;;;28.27;;
6053;SDS011;3055;50.886;14.814;2023-04-09T02:56:33;42.60;;;30.53;;
6053;SDS011;3055;50.886;14.814;2023-04-09T02:59:00;41.43;;;31.80;;
6053;SDS011;3055;50.886;14.814;2023-04-09T03:01:27;40.57;;;30.87;;
6053;SDS011;3055;50.886;14.814;2023-04-09T03:03:54;41.47;;;29.80;;
6053;SDS011;3055;50.886;14.814;2023-04-09T03:06:21;45.57;;;30.63;;
6053;SDS011;3055;50.886;14.814;2023-04-09T03:08:50;36.80;;;28.67;;
6053;SDS011;3055;50.886;14.814;2023-04-09T03:11:17;39.90;;;28.53;;
6053;SDS011;3055;50.886;14.814;2023-04-09T03:13:44;42.90;;;29.43;;
6053;SDS011;3055;50.886;14.814;2023-04-09T03:16:11;40.67;;;27.47;;
6053;SDS011;3055;50.886;14.814;2023-04-09T03:18:38;38.77;;;28.40;;
6053;SDS011;3055;50.886;14.814;2023-04-09T03:21:05;39.53;;;29.27;;
6053;SDS011;3055;50.886;14.814;2023-04-09T03:23:33;40.17;;;28.70;;
6053;SDS011;3055;50.886;14.814;2023-04-09T03:26:02;35.83;;;27.63;;
6053;SDS011;3055;50.886;14.814;2023-04-09T03:28:30;38.83;;;28.40;;
6053;SDS011;3055;50.886;14.814;2023-04-09T03:30:57;37.87;;;28.67;;
6053;SDS011;3055;50.886;14.814;2023-04-09T03:33:25;40.53;;;29.40;;
6053;SDS011;3055;50.886;14.814;2023-04-09T03:35:52;36.23;;;28.23;;
6053;SDS011;3055;50.886;14.814;2023-04-09T03:38:19;38.07;;;28.53;;
6053;SDS011;3055;50.886;14.814;2023-04-09T03:40:46;37.73;;;27.53;;
6053;SDS011;3055;50.886;14.814;2023-04-09T03:43:15;34.87;;;27.43;;
6053;SDS011;3055;50.886;14.814;2023-04-09T03:45:42;38.50;;;28.27;;
6053;SDS011;3055;50.886;14.814;2023-04-09T03:48:09;37.00;;;28.43;;
6053;SDS011;3055;50.886;14.814;2023-04-09T03:50:39;36.83;;;28.00;;
6053;SDS011;3055;50.886;14.814;2023-04-09T03:53:06;41.00;;;28.27;;
6053;SDS011;3055;50.886;14.814;2023-04-09T03:55:34;38.83;;;27.73;;
6053;SDS011;3055;50.886;14.814;2023-04-09T03:58:02;37.10;;;27.83;;
6053;SDS011;3055;50.886;14.814;2023-04-09T04:00:31;41.70;;;29.33;;
6053;SDS011;3055;50.886;14.814;2023-04-09T04:02:58;40.90;;;29.63;;
6053;SDS011;3055;50.886;14.814;2023-04-09T04:05:25;38.00;;;28.07;;
6053;SDS011;3055;50.886;14.814;2023-04-09T04:07:52;37.83;;;28.37;;
6053;SDS011;3055;50.886;14.814;2023-04-09T04:10:20;39.60;;;28.57;;
6053;SDS011;3055;50.886;14.814;2023-04-09T04:12:47;39.00;;;29.07;;
6053;SDS011;3055;50.886;14.814;2023-04-09T04:15:14;36.27;;;27.33;;
6053;SDS011;3055;50.886;14.814;2023-04-09T04:17:42;36.20;;;25.70;;
6053;SDS011;3055;50.886;14.814;2023-04-09T04:20:10;37.87;;;29.20;;
6053;SDS011;3055;50.886;14.814;2023-04-09T04:22:37;39.73;;;26.77;;
6053;SDS011;3055;50.886;14.814;2023-04-09T04:25:04;37.43;;;27.73;;
6053;SDS011;3055;50.886;14.814;2023-04-09T04:27:32;36.33;;;26.77;;
6053;SDS011;3055;50.886;14.814;2023-04-09T04:29:59;35.60;;;26.40;;
6053;SDS011;3055;50.886;14.814;2023-04-09T04:32:26;36.83;;;26.83;;
6053;SDS011;3055;50.886;14.814;2023-04-09T04:34:54;35.77;;;26.90;;
6053;SDS011;3055;50.886;14.814;2023-04-09T04:37:21;31.83;;;24.73;;
6053;SDS011;3055;50.886;14.814;2023-04-09T04:39:49;33.23;;;25.40;;
6053;SDS011;3055;50.886;14.814;2023-04-09T04:42:16;33.97;;;26.30;;
6053;SDS011;3055;50.886;14.814;2023-04-09T04:44:43;37.50;;;27.20;;
6053;SDS011;3055;50.886;14.814;2023-04-09T04:47:10;41.43;;;28.80;;
6053;SDS011;3055;50.886;14.814;2023-04-09T04:49:37;37.13;;;27.60;;
6053;SDS011;3055;50.886;14.814;2023-04-09T04:52:05;35.53;;;26.60;;
6053;SDS011;3055;50.886;14.814;2023-04-09T04:54:32;34.37;;;26.33;;
6053;SDS011;3055;50.886;14.814;2023-04-09T04:56:59;37.80;;;27.57;;
6053;SDS011;3055;50.886;14.814;2023-04-09T04:59:27;35.83;;;26.77;;
6053;SDS011;3055;50.886;14.814;2023-04-09T05:01:54;36.20;;;27.10;;
6053;SDS011;3055;50.886;14.814;2023-04-09T05:04:21;35.43;;;26.03;;
6053;SDS011;3055;50.886;14.814;2023-04-09T05:06:48;36.43;;;26.80;;
6053;SDS011;3055;50.886;14.814;2023-04-09T05:09:16;33.87;;;25.33;;
6053;SDS011;3055;50.886;14.814;2023-04-09T05:11:43;31.87;;;24.83;;
6053;SDS011;3055;50.886;14.814;2023-04-09T05:14:10;35.03;;;26.80;;
6053;SDS011;3055;50.886;14.814;2023-04-09T05:16:37;31.87;;;25.27;;
6053;SDS011;3055;50.886;14.814;2023-04-09T05:19:05;31.80;;;23.43;;
6053;SDS011;3055;50.886;14.814;2023-04-09T05:21:32;36.20;;;25.97;;
6053;SDS011;3055;50.886;14.814;2023-04-09T05:23:59;32.90;;;24.93;;
6053;SDS011;3055;50.886;14.814;2023-04-09T05:26:27;33.67;;;25.10;;
6053;SDS011;3055;50.886;14.814;2023-04-09T05:28:54;32.57;;;24.60;;
6053;SDS011;3055;50.886;14.814;2023-04-09T05:31:21;34.87;;;25.13;;
6053;SDS011;3055;50.886;14.814;2023-04-09T05:33:48;33.40;;;24.77;;
6053;SDS011;3055;50.886;14.814;2023-04-09T05:36:17;34.90;;;25.33;;
6053;SDS011;3055;50.886;14.814;2023-04-09T05:38:45;32.40;;;24.57;;
6053;SDS011;3055;50.886;14.814;2023-04-09T05:41:12;30.93;;;25.07;;
6053;SDS011;3055;50.886;14.814;2023-04-09T05:43:41;33.50;;;23.43;;
6053;SDS011;3055;50.886;14.814;2023-04-09T05:46:08;32.00;;;24.97;;
6053;SDS011;3055;50.886;14.814;2023-04-09T05:48:35;33.47;;;24.77;;
6053;SDS011;3055;50.886;14.814;2023-04-09T05:51:02;33.87;;;24.27;;
6053;SDS011;3055;50.886;14.814;2023-04-09T05:53:29;31.40;;;24.27;;
6053;SDS011;3055;50.886;14.814;2023-04-09T05:55:57;36.97;;;26.50;;
6053;SDS011;3055;50.886;14.814;2023-04-09T05:58:24;32.73;;;25.47;;
6053;SDS011;3055;50.886;14.814;2023-04-09T06:00:52;34.60;;;25.43;;
6053;SDS011;3055;50.886;14.814;2023-04-09T06:03:20;36.87;;;26.77;;
6053;SDS011;3055;50.886;14.814;2023-04-09T06:05:47;34.57;;;26.83;;
6053;SDS011;3055;50.886;14.814;2023-04-09T06:08:14;37.07;;;27.43;;
6053;SDS011;3055;50.886;14.814;2023-04-09T06:10:41;34.27;;;26.73;;
6053;SDS011;3055;50.886;14.814;2023-04-09T06:13:08;33.20;;;25.30;;
6053;SDS011;3055;50.886;14.814;2023-04-09T06:15:36;37.40;;;27.73;;
6053;SDS011;3055;50.886;14.814;2023-04-09T06:18:05;33.87;;;25.60;;
6053;SDS011;3055;50.886;14.814;2023-04-09T06:20:32;33.10;;;25.67;;
6053;SDS011;3055;50.886;14.814;2023-04-09T06:22:59;35.10;;;26.13;;
6053;SDS011;3055;50.886;14.814;2023-04-09T06:25:26;33.93;;;26.00;;
6053;SDS011;3055;50.886;14.814;2023-04-09T06:27:53;34.20;;;26.17;;
6053;SDS011;3055;50.886;14.814;2023-04-09T06:30:20;34.23;;;25.33;;
6053;SDS011;3055;50.886;14.814;2023-04-09T06:32:47;32.60;;;26.13;;
6053;SDS011;3055;50.886;14.814;2023-04-09T06:35:17;35.10;;;25.53;;
6053;SDS011;3055;50.886;14.814;2023-04-09T06:37:43;33.80;;;25.47;;
6053;SDS011;3055;50.886;14.814;2023-04-09T06:40:11;30.20;;;22.97;;
6053;SDS011;3055;50.886;14.814;2023-04-09T06:42:38;31.40;;;23.93;;
6053;SDS011;3055;50.886;14.814;2023-04-09T06:45:06;30.50;;;24.40;;
6053;SDS011;3055;50.886;14.814;2023-04-09T06:47:33;34.43;;;24.47;;
6053;SDS011;3055;50.886;14.814;2023-04-09T06:50:01;29.73;;;23.57;;
6053;SDS011;3055;50.886;14.814;2023-04-09T06:52:29;29.93;;;23.07;;
6053;SDS011;3055;50.886;14.814;2023-04-09T06:54:57;28.47;;;22.97;;
6053;SDS011;3055;50.886;14.814;2023-04-09T06:57:24;29.73;;;23.37;;
6053;SDS011;3055;50.886;14.814;2023-04-09T06:59:51;30.33;;;23.87;;
6053;SDS011;3055;50.886;14.814;2023-04-09T07:02:18;34.50;;;24.90;;
6053;SDS011;3055;50.886;14.814;2023-04-09T07:04:45;34.97;;;25.43;;
6053;SDS011;3055;50.886;14.814;2023-04-09T07:07:12;31.13;;;25.47;;
6053;SDS011;3055;50.886;14.814;2023-04-09T07:09:41;34.50;;;25.97;;
6053;SDS011;3055;50.886;14.814;2023-04-09T07:12:08;28.43;;;23.63;;
6053;SDS011;3055;50.886;14.814;2023-04-09T07:14:35;34.33;;;24.63;;
6053;SDS011;3055;50.886;14.814;2023-04-09T07:17:02;31.67;;;24.57;;
6053;SDS011;3055;50.886;14.814;2023-04-09T07:19:29;31.13;;;23.23;;
6053;SDS011;3055;50.886;14.814;2023-04-09T07:21:56;30.77;;;23.87;;
6053;SDS011;3055;50.886;14.814;2023-04-09T07:24:23;30.43;;;23.80;;
6053;SDS011;3055;50.886;14.814;2023-04-09T07:26:52;32.43;;;23.67;;
6053;SDS011;3055;50.886;14.814;2023-04-09T07:29:19;31.13;;;23.97;;
6053;SDS011;3055;50.886;14.814;2023-04-09T07:31:46;31.73;;;25.03;;
6053;SDS011;3055;50.886;14.814;2023-04-09T07:34:13;27.00;;;19.10;;
6053;SDS011;3055;50.886;14.814;2023-04-09T07:36:41;25.43;;;20.70;;
6053;SDS011;3055;50.886;14.814;2023-04-09T07:39:08;24.57;;;20.57;;
6053;SDS011;3055;50.886;14.814;2023-04-09T07:41:35;22.77;;;19.60;;
6053;SDS011;3055;50.886;14.814;2023-04-09T07:44:03;24.23;;;19.57;;
6053;SDS011;3055;50.886;14.814;2023-04-09T07:46:31;26.17;;;20.17;;
6053;SDS011;3055;50.886;14.814;2023-04-09T07:48:58;25.07;;;19.97;;
6053;SDS011;3055;50.886;14.814;2023-04-09T07:51:25;23.87;;;21.23;;
6053;SDS011;3055;50.886;14.814;2023-04-09T07:53:52;26.20;;;20.10;;
6053;SDS011;3055;50.886;14.814;2023-04-09T07:56:20;22.77;;;19.17;;
6053;SDS011;3055;50.886;14.814;2023-04-09T07:58:47;23.77;;;19.07;;
6053;SDS011;3055;50.886;14.814;2023-04-09T08:01:16;30.83;;;22.00;;
6053;SDS011;3055;50.886;14.814;2023-04-09T08:03:45;23.57;;;19.43;;
6053;SDS011;3055;50.886;14.814;2023-04-09T08:06:13;23.17;;;20.20;;
6053;SDS011;3055;50.886;14.814;2023-04-09T08:08:40;24.60;;;20.63;;
6053;SDS011;3055;50.886;14.814;2023-04-09T08:11:07;25.20;;;19.90;;
6053;SDS011;3055;50.886;14.814;2023-04-09T08:13:36;27.57;;;22.03;;
6053;SDS011;3055;50.886;14.814;2023-04-09T08:16:04;25.97;;;20.80;;
6053;SDS011;3055;50.886;14.814;2023-04-09T08:18:33;25.70;;;20.90;;
6053;SDS011;3055;50.886;14.814;2023-04-09T08:21:03;25.60;;;20.67;;
6053;SDS011;3055;50.886;14.814;2023-04-09T08:23:30;24.23;;;19.77;;
6053;SDS011;3055;50.886;14.814;2023-04-09T08:25:57;25.43;;;21.10;;
6053;SDS011;3055;50.886;14.814;2023-04-09T08:28:34;25.97;;;20.10;;
6053;SDS011;3055;50.886;14.814;2023-04-09T08:31:01;29.87;;;21.83;;
6053;SDS011;3055;50.886;14.814;2023-04-09T08:33:28;25.67;;;19.77;;
6053;SDS011;3055;50.886;14.814;2023-04-09T08:35:56;25.10;;;19.97;;
6053;SDS011;3055;50.886;14.814;2023-04-09T08:38:23;24.50;;;20.40;;
6053;SDS011;3055;50.886;14.814;2023-04-09T08:40:50;24.40;;;19.00;;
6053;SDS011;3055;50.886;14.814;2023-04-09T08:43:17;26.80;;;20.23;;
6053;SDS011;3055;50.886;14.814;2023-04-09T08:45:49;26.87;;;20.63;;
6053;SDS011;3055;50.886;14.814;2023-04-09T08:48:16;22.93;;;18.83;;
6053;SDS011;3055;50.886;14.814;2023-04-09T08:50:44;23.60;;;18.90;;
6053;SDS011;3055;50.886;14.814;2023-04-09T08:53:11;20.67;;;17.43;;
6053;SDS011;3055;50.886;14.814;2023-04-09T08:55:43;24.77;;;18.63;;
6053;SDS011;3055;50.886;14.814;2023-04-09T08:58:10;19.63;;;17.50;;
6053;SDS011;3055;50.886;14.814;2023-04-09T09:00:38;22.27;;;17.60;;
6053;SDS011;3055;50.886;14.814;2023-04-09T09:03:07;21.73;;;17.33;;
6053;SDS011;3055;50.886;14.814;2023-04-09T09:05:35;20.87;;;17.27;;
6053;SDS011;3055;50.886;14.814;2023-04-09T09:08:03;22.60;;;18.83;;
6053;SDS011;3055;50.886;14.814;2023-04-09T09:10:39;23.60;;;20.00;;
6053;SDS011;3055;50.886;14.814;2023-04-09T09:13:17;25.03;;;19.73;;
6053;SDS011;3055;50.886;14.814;2023-04-09T09:15:45;21.63;;;18.23;;
6053;SDS011;3055;50.886;14.814;2023-04-09T09:18:16;22.97;;;17.80;;
6053;SDS011;3055;50.886;14.814;2023-04-09T09:20:43;19.70;;;17.17;;
6053;SDS011;3055;50.886;14.814;2023-04-09T09:23:10;23.90;;;19.20;;
6053;SDS011;3055;50.886;14.814;2023-04-09T09:25:38;22.70;;;18.57;;
6053;SDS011;3055;50.886;14.814;2023-04-09T09:28:06;21.07;;;17.97;;
6053;SDS011;3055;50.886;14.814;2023-04-09T09:30:34;21.60;;;17.30;;
6053;SDS011;3055;50.886;14.814;2023-04-09T09:33:04;21.97;;;17.87;;
6053;SDS011;3055;50.886;14.814;2023-04-09T09:35:46;20.73;;;17.13;;
6053;SDS011;3055;50.886;14.814;2023-04-09T09:38:14;18.87;;;16.73;;
6053;SDS011;3055;50.886;14.814;2023-04-09T09:40:41;23.00;;;17.17;;
6053;SDS011;3055;50.886;14.814;2023-04-09T09:43:08;19.63;;;17.43;;
6053;SDS011;3055;50.886;14.814;2023-04-09T09:45:36;21.27;;;18.17;;
6053;SDS011;3055;50.886;14.814;2023-04-09T09:48:04;19.17;;;16.80;;
6053;SDS011;3055;50.886;14.814;2023-04-09T09:50:31;17.87;;;15.97;;
6053;SDS011;3055;50.886;14.814;2023-04-09T09:53:02;17.87;;;15.27;;
6053;SDS011;3055;50.886;14.814;2023-04-09T09:55:31;19.70;;;16.37;;
6053;SDS011;3055;50.886;14.814;2023-04-09T09:58:00;20.13;;;17.87;;
6053;SDS011;3055;50.886;14.814;2023-04-09T10:00:29;19.87;;;17.47;;
6053;SDS011;3055;50.886;14.814;2023-04-09T10:03:00;18.47;;;16.40;;
6053;SDS011;3055;50.886;14.814;2023-04-09T10:05:36;18.97;;;16.40;;
6053;SDS011;3055;50.886;14.814;2023-04-09T10:08:07;18.93;;;15.07;;
6053;SDS011;3055;50.886;14.814;2023-04-09T10:10:36;18.20;;;16.13;;
6053;SDS011;3055;50.886;14.814;2023-04-09T10:13:06;16.70;;;14.90;;
6053;SDS011;3055;50.886;14.814;2023-04-09T10:15:35;19.60;;;16.47;;
6053;SDS011;3055;50.886;14.814;2023-04-09T10:18:02;18.37;;;16.30;;
6053;SDS011;3055;50.886;14.814;2023-04-09T10:20:31;18.00;;;16.10;;
6053;SDS011;3055;50.886;14.814;2023-04-09T10:23:08;19.27;;;14.77;;
6053;SDS011;3055;50.886;14.814;2023-04-09T10:25:49;18.10;;;15.40;;
6053;SDS011;3055;50.886;14.814;2023-04-09T10:28:17;18.10;;;16.20;;
6053;SDS011;3055;50.886;14.814;2023-04-09T10:30:44;18.07;;;15.17;;
6053;SDS011;3055;50.886;14.814;2023-04-09T10:33:12;18.93;;;16.40;;
6053;SDS011;3055;50.886;14.814;2023-04-09T10:35:40;17.20;;;14.87;;
6053;SDS011;3055;50.886;14.814;2023-04-09T10:38:09;18.00;;;15.17;;
6053;SDS011;3055;50.886;14.814;2023-04-09T10:40:39;18.47;;;16.13;;
6053;SDS011;3055;50.886;14.814;2023-04-09T10:43:07;17.57;;;15.63;;
6053;SDS011;3055;50.886;14.814;2023-04-09T10:45:38;17.00;;;13.80;;
6053;SDS011;3055;50.886;14.814;2023-04-09T10:48:10;18.33;;;14.87;;
6053;SDS011;3055;50.886;14.814;2023-04-09T10:50:38;18.00;;;15.93;;
6053;SDS011;3055;50.886;14.814;2023-04-09T10:53:19;16.07;;;14.47;;
6053;SDS011;3055;50.886;14.814;2023-04-09T10:55:49;18.17;;;16.03;;
6053;SDS011;3055;50.886;14.814;2023-04-09T10:58:17;17.53;;;15.60;;
6053;SDS011;3055;50.886;14.814;2023-04-09T11:00:46;16.47;;;14.67;;
6053;SDS011;3055;50.886;14.814;2023-04-09T11:03:20;16.00;;;14.00;;
6053;SDS011;3055;50.886;14.814;2023-04-09T11:05:53;19.63;;;15.10;;
6053;SDS011;3055;50.886;14.814;2023-04-09T11:08:26;14.23;;;12.77;;
6053;SDS011;3055;50.886;14.814;2023-04-09T11:10:54;15.10;;;13.60;;
6053;SDS011;3055;50.886;14.814;2023-04-09T11:13:23;14.53;;;12.53;;
6053;SDS011;3055;50.886;14.814;2023-04-09T11:15:50;16.43;;;14.73;;
6053;SDS011;3055;50.886;14.814;2023-04-09T11:18:21;15.87;;;14.13;;
6053;SDS011;3055;50.886;14.814;2023-04-09T11:20:52;15.40;;;13.80;;
6053;SDS011;3055;50.886;14.814;2023-04-09T11:23:20;18.90;;;14.93;;
6053;SDS011;3055;50.886;14.814;2023-04-09T11:25:49;18.07;;;16.17;;
6053;SDS011;3055;50.886;14.814;2023-04-09T11:28:17;18.43;;;16.13;;
6053;SDS011;3055;50.886;14.814;2023-04-09T11:30:44;19.97;;;16.70;;
6053;SDS011;3055;50.886;14.814;2023-04-09T11:33:12;17.67;;;15.73;;
6053;SDS011;3055;50.886;14.814;2023-04-09T11:35:39;17.93;;;16.03;;
6053;SDS011;3055;50.886;14.814;2023-04-09T11:38:06;19.37;;;15.93;;
6053;SDS011;3055;50.886;14.814;2023-04-09T11:40:34;18.50;;;16.57;;
6053;SDS011;3055;50.886;14.814;2023-04-09T11:43:08;16.17;;;14.47;;
6053;SDS011;3055;50.886;14.814;2023-04-09T11:45:36;17.57;;;14.93;;
6053;SDS011;3055;50.886;14.814;2023-04-09T11:48:03;17.97;;;15.23;;
6053;SDS011;3055;50.886;14.814;2023-04-09T11:50:31;17.80;;;16.00;;
6053;SDS011;3055;50.886;14.814;2023-04-09T11:52:58;18.97;;;16.67;;
6053;SDS011;3055;50.886;14.814;2023-04-09T11:55:25;18.67;;;16.30;;
6053;SDS011;3055;50.886;14.814;2023-04-09T11:57:55;19.03;;;15.70;;
6053;SDS011;3055;50.886;14.814;2023-04-09T12:00:26;18.37;;;15.83;;
6053;SDS011;3055;50.886;14.814;2023-04-09T12:02:58;16.67;;;14.57;;
6053;SDS011;3055;50.886;14.814;2023-04-09T12:05:27;16.43;;;14.63;;
6053;SDS011;3055;50.886;14.814;2023-04-09T12:07:56;15.47;;;13.90;;
6053;SDS011;3055;50.886;14.814;2023-04-09T12:10:25;14.33;;;12.83;;
6053;SDS011;3055;50.886;14.814;2023-04-09T12:12:53;14.90;;;13.40;;
6053;SDS011;3055;50.886;14.814;2023-04-09T12:15:21;14.77;;;12.80;;
6053;SDS011;3055;50.886;14.814;2023-04-09T12:17:52;14.77;;;13.17;;
6053;SDS011;3055;50.886;14.814;2023-04-09T12:20:27;14.97;;;13.37;;
6053;SDS011;3055;50.886;14.814;2023-04-09T12:22:56;14.87;;;13.37;;
6053;SDS011;3055;50.886;14.814;2023-04-09T12:25:24;16.87;;;14.90;;
6053;SDS011;3055;50.886;14.814;2023-04-09T12:27:51;16.53;;;14.83;;
6053;SDS011;3055;50.886;14.814;2023-04-09T12:30:18;18.03;;;16.03;;
6053;SDS011;3055;50.886;14.814;2023-04-09T12:32:45;16.80;;;14.47;;
6053;SDS011;3055;50.886;14.814;2023-04-09T12:35:14;16.80;;;15.00;;
6053;SDS011;3055;50.886;14.814;2023-04-09T12:37:41;17.23;;;15.43;;
6053;SDS011;3055;50.886;14.814;2023-04-09T12:40:09;17.53;;;15.00;;
6053;SDS011;3055;50.886;14.814;2023-04-09T12:42:38;18.03;;;16.13;;
6053;SDS011;3055;50.886;14.814;2023-04-09T12:45:06;18.43;;;14.40;;
6053;SDS011;3055;50.886;14.814;2023-04-09T12:47:34;15.23;;;13.23;;
6053;SDS011;3055;50.886;14.814;2023-04-09T12:50:01;16.33;;;13.57;;
6053;SDS011;3055;50.886;14.814;2023-04-09T12:52:30;15.83;;;14.23;;
6053;SDS011;3055;50.886;14.814;2023-04-09T12:54:57;15.43;;;13.80;;
6053;SDS011;3055;50.886;14.814;2023-04-09T12:57:24;16.53;;;14.03;;
6053;SDS011;3055;50.886;14.814;2023-04-09T12:59:51;20.33;;;16.53;;
6053;SDS011;3055;50.886;14.814;2023-04-09T13:02:18;15.40;;;13.50;;
6053;SDS011;3055;50.886;14.814;2023-04-09T13:04:46;18.10;;;15.43;;
6053;SDS011;3055;50.886;14.814;2023-04-09T13:07:13;16.57;;;14.73;;
6053;SDS011;3055;50.886;14.814;2023-04-09T13:09:43;17.83;;;14.67;;
6053;SDS011;3055;50.886;14.814;2023-04-09T13:12:11;17.00;;;15.20;;
6053;SDS011;3055;50.886;14.814;2023-04-09T13:14:38;17.80;;;15.90;;
6053;SDS011;3055;50.886;14.814;2023-04-09T13:17:06;19.07;;;16.43;;
6053;SDS011;3055;50.886;14.814;2023-04-09T13:19:33;17.13;;;15.37;;
6053;SDS011;3055;50.886;14.814;2023-04-09T13:22:00;17.50;;;14.33;;
6053;SDS011;3055;50.886;14.814;2023-04-09T13:24:27;16.40;;;14.63;;
6053;SDS011;3055;50.886;14.814;2023-04-09T13:26:55;16.37;;;14.30;;
6053;SDS011;3055;50.886;14.814;2023-04-09T13:29:22;16.87;;;14.43;;
6053;SDS011;3055;50.886;14.814;2023-04-09T13:31:53;15.03;;;13.43;;
6053;SDS011;3055;50.886;14.814;2023-04-09T13:34:21;17.33;;;14.50;;
6053;SDS011;3055;50.886;14.814;2023-04-09T13:36:48;17.30;;;14.30;;
6053;SDS011;3055;50.886;14.814;2023-04-09T13:39:15;17.73;;;15.87;;
6053;SDS011;3055;50.886;14.814;2023-04-09T13:41:42;15.87;;;14.27;;
6053;SDS011;3055;50.886;14.814;2023-04-09T13:44:10;17.53;;;15.70;;
6053;SDS011;3055;50.886;14.814;2023-04-09T13:46:37;16.97;;;14.60;;
6053;SDS011;3055;50.886;14.814;2023-04-09T13:49:05;17.63;;;15.40;;
6053;SDS011;3055;50.886;14.814;2023-04-09T13:51:32;16.67;;;14.87;;
6053;SDS011;3055;50.886;14.814;2023-04-09T13:53:59;17.20;;;15.13;;
6053;SDS011;3055;50.886;14.814;2023-04-09T13:56:26;16.07;;;14.47;;
6053;SDS011;3055;50.886;14.814;2023-04-09T13:58:53;14.57;;;13.07;;
6053;SDS011;3055;50.886;14.814;2023-04-09T14:01:22;14.03;;;12.53;;
6053;SDS011;3055;50.886;14.814;2023-04-09T14:03:51;13.07;;;11.77;;
6053;SDS011;3055;50.886;14.814;2023-04-09T14:06:18;14.07;;;12.63;;
6053;SDS011;3055;50.886;14.814;2023-04-09T14:08:45;14.40;;;12.90;;
6053;SDS011;3055;50.886;14.814;2023-04-09T14:11:12;12.70;;;11.43;;
6053;SDS011;3055;50.886;14.814;2023-04-09T14:13:40;14.63;;;12.17;;
6053;SDS011;3055;50.886;14.814;2023-04-09T14:16:07;14.70;;;13.30;;
6053;SDS011;3055;50.886;14.814;2023-04-09T14:18:36;13.90;;;12.40;;
6053;SDS011;3055;50.886;14.814;2023-04-09T14:21:04;12.40;;;11.17;;
6053;SDS011;3055;50.886;14.814;2023-04-09T14:23:32;13.27;;;11.57;;
6053;SDS011;3055;50.886;14.814;2023-04-09T14:25:59;13.90;;;12.40;;
6053;SDS011;3055;50.886;14.814;2023-04-09T14:28:27;12.90;;;11.60;;
6053;SDS011;3055;50.886;14.814;2023-04-09T14:30:54;13.10;;;11.77;;
6053;SDS011;3055;50.886;14.814;2023-04-09T14:33:21;13.50;;;12.10;;
6053;SDS011;3055;50.886;14.814;2023-04-09T14:35:49;12.70;;;11.40;;
6053;SDS011;3055;50.886;14.814;2023-04-09T14:38:16;12.63;;;11.33;;
6053;SDS011;3055;50.886;14.814;2023-04-09T14:40:43;12.53;;;10.77;;